sensor_id;sensor_type;location;lat;lon;timestamp;pressure;altitude;pressure_sealevel;temperature;humidity
58821;BME280;70670;52.476;13.334;2023-08-21T00:01:34;101585.53;;;21.98;80.21
58821;BME280;70670;52.476;13.334;2023-08-21T00:03:59;101592.81;;;21.97;80.17
58821;BME280;70670;52.476;13.334;2023-08-21T00:06:25;101581.34;;;21.94;80.30
58821;BME280;70670;52.476;13.334;2023-08-21T00:08:50;101581.88;;;21.88;80.49
58821;BME280;70670;52.476;13.334;2023-08-21T00:11:16;101525.53;;;21.57;80.03
58821;BME280;70670;52.476;13.334;2023-08-21T00:13:42;101570.66;;;21.81;80.86
58821;BME280;70670;52.476;13.334;2023-08-21T00:16:10;101579.16;;;21.88;80.36
58821;BME280;70670;52.476;13.334;2023-08-21T00:18:36;101575.22;;;21.71;81.01
58821;BME280;70670;52.476;13.334;2023-08-21T00:21:02;101579.47;;;21.64;81.18
58821;BME280;70670;52.476;13.334;2023-08-21T00:23:28;101578.28;;;21.56;81.81
58821;BME280;70670;52.476;13.334;2023-08-21T00:25:53;101580.28;;;21.54;81.81
58821;BME280;70670;52.476;13.334;2023-08-21T00:28:19;101536.38;;;21.27;82.08
58821;BME280;70670;52.476;13.334;2023-08-21T00:30:45;101572.19;;;21.43;82.41
58821;BME280;70670;52.476;13.334;2023-08-21T00:33:10;101579.97;;;21.48;82.42
58821;BME280;70670;52.476;13.334;2023-08-21T00:35:36;101570.34;;;21.44;82.12
58821;BME280;70670;52.476;13.334;2023-08-21T00:38:01;101574.19;;;21.41;81.85
58821;BME280;70670;52.476;13.334;2023-08-21T00:40:28;101577.75;;;21.42;82.11
58821;BME280;70670;52.476;13.334;2023-08-21T00:42:53;101513.03;;;21.03;82.15
58821;BME280;70670;52.476;13.334;2023-08-21T00:45:19;101587.09;;;21.39;81.96
58821;BME280;70670;52.476;13.334;2023-08-21T00:47:44;101582.16;;;21.33;81.90
58821;BME280;70670;52.476;13.334;2023-08-21T00:50:10;101582.50;;;21.40;81.79
58821;BME280;70670;52.476;13.334;2023-08-21T00:52:40;101579.88;;;21.38;82.05
58821;BME280;70670;52.476;13.334;2023-08-21T00:55:08;101580.88;;;21.37;82.08
58821;BME280;70670;52.476;13.334;2023-08-21T00:57:35;101582.75;;;21.36;81.93
58821;BME280;70670;52.476;13.334;2023-08-21T01:00:02;101559.88;;;21.28;82.19
58821;BME280;70670;52.476;13.334;2023-08-21T01:02:29;101585.75;;;21.33;82.22
58821;BME280;70670;52.476;13.334;2023-08-21T01:04:55;101572.31;;;21.21;82.55
58821;BME280;70670;52.476;13.334;2023-08-21T01:07:20;101583.66;;;21.26;82.51
58821;BME280;70670;52.476;13.334;2023-08-21T01:09:51;101522.50;;;20.88;82.43
58821;BME280;70670;52.476;13.334;2023-08-21T01:12:27;101594.06;;;21.21;83.05
58821;BME280;70670;52.476;13.334;2023-08-21T01:15:06;101588.88;;;21.18;83.08
58821;BME280;70670;52.476;13.334;2023-08-21T01:17:34;101567.78;;;21.10;83.14
58821;BME280;70670;52.476;13.334;2023-08-21T01:20:02;101523.88;;;20.82;83.43
58821;BME280;70670;52.476;13.334;2023-08-21T01:22:35;101543.81;;;21.04;83.15
58821;BME280;70670;52.476;13.334;2023-08-21T01:25:02;101580.00;;;21.16;83.72
58821;BME280;70670;52.476;13.334;2023-08-21T01:27:28;101589.50;;;21.21;83.42
58821;BME280;70670;52.476;13.334;2023-08-21T01:29:54;101580.91;;;21.26;82.92
58821;BME280;70670;52.476;13.334;2023-08-21T01:32:41;101580.22;;;21.24;83.29
58821;BME280;70670;52.476;13.334;2023-08-21T01:35:09;101584.03;;;21.21;83.33
58821;BME280;70670;52.476;13.334;2023-08-21T01:37:35;101577.50;;;21.24;83.14
58821;BME280;70670;52.476;13.334;2023-08-21T01:40:01;101581.06;;;21.24;83.33
58821;BME280;70670;52.476;13.334;2023-08-21T01:42:26;101563.63;;;21.27;82.95
58821;BME280;70670;52.476;13.334;2023-08-21T01:44:52;101560.03;;;21.26;83.13
58821;BME280;70670;52.476;13.334;2023-08-21T01:47:18;101558.03;;;21.28;83.25
58821;BME280;70670;52.476;13.334;2023-08-21T01:49:43;101558.88;;;21.29;82.87
58821;BME280;70670;52.476;13.334;2023-08-21T01:52:09;101511.09;;;20.94;82.93
58821;BME280;70670;52.476;13.334;2023-08-21T01:54:35;101573.75;;;21.25;82.77
58821;BME280;70670;52.476;13.334;2023-08-21T01:57:01;101563.28;;;21.20;83.53
58821;BME280;70670;52.476;13.334;2023-08-21T01:59:27;101578.88;;;21.18;83.62
58821;BME280;70670;52.476;13.334;2023-08-21T02:01:52;101563.59;;;21.06;83.90
58821;BME280;70670;52.476;13.334;2023-08-21T02:04:19;101574.22;;;21.09;84.04
58821;BME280;70670;52.476;13.334;2023-08-21T02:06:45;101570.25;;;21.13;83.66
58821;BME280;70670;52.476;13.334;2023-08-21T02:09:10;101564.44;;;21.06;84.07
58821;BME280;70670;52.476;13.334;2023-08-21T02:11:36;101564.94;;;21.11;83.61
58821;BME280;70670;52.476;13.334;2023-08-21T02:14:02;101554.47;;;21.07;83.78
58821;BME280;70670;52.476;13.334;2023-08-21T02:16:28;101561.72;;;21.06;84.05
58821;BME280;70670;52.476;13.334;2023-08-21T02:18:54;101564.44;;;21.06;84.04
58821;BME280;70670;52.476;13.334;2023-08-21T02:21:20;101552.69;;;21.06;83.61
58821;BME280;70670;52.476;13.334;2023-08-21T02:23:46;101549.66;;;20.99;84.01
58821;BME280;70670;52.476;13.334;2023-08-21T02:26:11;101557.84;;;20.99;84.13
58821;BME280;70670;52.476;13.334;2023-08-21T02:28:37;101561.53;;;20.98;84.09
58821;BME280;70670;52.476;13.334;2023-08-21T02:31:03;101526.34;;;20.65;84.41
58821;BME280;70670;52.476;13.334;2023-08-21T02:33:28;101512.88;;;20.63;84.27
58821;BME280;70670;52.476;13.334;2023-08-21T02:35:54;101567.50;;;20.92;84.50
58821;BME280;70670;52.476;13.334;2023-08-21T02:38:20;101550.84;;;20.85;84.51
58821;BME280;70670;52.476;13.334;2023-08-21T02:40:45;101561.06;;;20.93;84.47
58821;BME280;70670;52.476;13.334;2023-08-21T02:43:13;101562.06;;;20.92;84.73
58821;BME280;70670;52.476;13.334;2023-08-21T02:45:38;101558.88;;;20.87;84.54
58821;BME280;70670;52.476;13.334;2023-08-21T02:48:04;101560.59;;;20.88;84.55
58821;BME280;70670;52.476;13.334;2023-08-21T02:50:29;101561.59;;;20.87;84.90
58821;BME280;70670;52.476;13.334;2023-08-21T02:52:55;101554.41;;;20.86;84.59
58821;BME280;70670;52.476;13.334;2023-08-21T02:55:21;101559.84;;;20.86;84.54
58821;BME280;70670;52.476;13.334;2023-08-21T02:57:47;101538.88;;;20.77;84.37
58821;BME280;70670;52.476;13.334;2023-08-21T03:00:13;101496.19;;;20.56;84.36
58821;BME280;70670;52.476;13.334;2023-08-21T03:02:38;101559.59;;;20.89;84.59
58821;BME280;70670;52.476;13.334;2023-08-21T03:05:07;101562.22;;;20.91;84.39
58821;BME280;70670;52.476;13.334;2023-08-21T03:07:34;101534.56;;;20.74;84.09
58821;BME280;70670;52.476;13.334;2023-08-21T03:10:00;101558.59;;;20.90;84.26
58821;BME280;70670;52.476;13.334;2023-08-21T03:12:27;101559.19;;;20.94;83.98
58821;BME280;70670;52.476;13.334;2023-08-21T03:14:53;101546.84;;;20.90;83.51
58821;BME280;70670;52.476;13.334;2023-08-21T03:17:19;101511.53;;;20.57;83.53
58821;BME280;70670;52.476;13.334;2023-08-21T03:19:44;101544.19;;;20.78;83.64
58821;BME280;70670;52.476;13.334;2023-08-21T03:22:10;101564.03;;;20.90;83.45
58821;BME280;70670;52.476;13.334;2023-08-21T03:24:36;101556.16;;;20.87;83.01
58821;BME280;70670;52.476;13.334;2023-08-21T03:27:02;101556.78;;;20.91;83.16
58821;BME280;70670;52.476;13.334;2023-08-21T03:29:28;101553.69;;;20.84;83.45
58821;BME280;70670;52.476;13.334;2023-08-21T03:31:54;101524.31;;;20.67;83.19
58821;BME280;70670;52.476;13.334;2023-08-21T03:34:22;101511.53;;;20.57;82.98
58821;BME280;70670;52.476;13.334;2023-08-21T03:36:49;101556.41;;;20.84;83.17
58821;BME280;70670;52.476;13.334;2023-08-21T03:39:15;101552.75;;;20.74;83.34
58821;BME280;70670;52.476;13.334;2023-08-21T03:41:41;101549.97;;;20.85;83.41
58821;BME280;70670;52.476;13.334;2023-08-21T03:44:06;101553.44;;;20.87;82.84
58821;BME280;70670;52.476;13.334;2023-08-21T03:46:32;101493.25;;;20.48;83.21
58821;BME280;70670;52.476;13.334;2023-08-21T03:48:58;101537.56;;;20.71;83.16
58821;BME280;70670;52.476;13.334;2023-08-21T03:51:24;101559.13;;;20.84;83.22
58821;BME280;70670;52.476;13.334;2023-08-21T03:53:49;101498.94;;;20.45;82.85
58821;BME280;70670;52.476;13.334;2023-08-21T03:56:15;101566.16;;;20.86;83.08
58821;BME280;70670;52.476;13.334;2023-08-21T03:58:40;101554.69;;;20.83;82.88
58821;BME280;70670;52.476;13.334;2023-08-21T04:01:06;101570.03;;;20.84;82.60
58821;BME280;70670;52.476;13.334;2023-08-21T04:03:32;101575.81;;;20.91;82.65
58821;BME280;70670;52.476;13.334;2023-08-21T04:05:58;101569.22;;;20.93;82.46
58821;BME280;70670;52.476;13.334;2023-08-21T04:08:24;101576.13;;;20.97;82.75
58821;BME280;70670;52.476;13.334;2023-08-21T04:10:50;101508.81;;;20.57;82.55
58821;BME280;70670;52.476;13.334;2023-08-21T04:13:17;101573.81;;;20.93;82.47
58821;BME280;70670;52.476;13.334;2023-08-21T04:15:48;101572.69;;;20.95;82.32
58821;BME280;70670;52.476;13.334;2023-08-21T04:18:14;101580.72;;;20.97;82.20
58821;BME280;70670;52.476;13.334;2023-08-21T04:20:39;101557.28;;;20.84;82.56
58821;BME280;70670;52.476;13.334;2023-08-21T04:23:05;101569.38;;;20.92;82.54
58821;BME280;70670;52.476;13.334;2023-08-21T04:25:31;101589.50;;;21.00;82.19
58821;BME280;70670;52.476;13.334;2023-08-21T04:27:56;101545.94;;;20.79;82.02
58821;BME280;70670;52.476;13.334;2023-08-21T04:30:22;101518.69;;;20.58;82.54
58821;BME280;70670;52.476;13.334;2023-08-21T04:32:48;101590.81;;;20.74;83.43
58821;BME280;70670;52.476;13.334;2023-08-21T04:35:14;101604.56;;;20.72;83.96
58821;BME280;70670;52.476;13.334;2023-08-21T04:37:46;101542.00;;;20.29;84.96
58821;BME280;70670;52.476;13.334;2023-08-21T04:40:12;101602.25;;;20.68;84.74
58821;BME280;70670;52.476;13.334;2023-08-21T04:42:38;101615.94;;;20.66;85.38
58821;BME280;70670;52.476;13.334;2023-08-21T04:45:04;101591.03;;;20.50;85.51
58821;BME280;70670;52.476;13.334;2023-08-21T04:47:31;101587.81;;;20.45;86.08
58821;BME280;70670;52.476;13.334;2023-08-21T04:49:57;101609.44;;;20.57;86.23
58821;BME280;70670;52.476;13.334;2023-08-21T04:52:23;101598.53;;;20.46;86.62
58821;BME280;70670;52.476;13.334;2023-08-21T04:54:50;101614.16;;;20.55;86.49
58821;BME280;70670;52.476;13.334;2023-08-21T04:57:16;101613.88;;;20.47;87.04
58821;BME280;70670;52.476;13.334;2023-08-21T04:59:43;101611.41;;;20.44;87.53
58821;BME280;70670;52.476;13.334;2023-08-21T05:02:08;101602.91;;;20.49;87.12
58821;BME280;70670;52.476;13.334;2023-08-21T05:04:35;101611.91;;;20.38;86.85
58821;BME280;70670;52.476;13.334;2023-08-21T05:07:01;101603.16;;;20.23;87.89
58821;BME280;70670;52.476;13.334;2023-08-21T05:09:27;101573.91;;;20.04;87.44
58821;BME280;70670;52.476;13.334;2023-08-21T05:11:53;101546.50;;;19.85;88.17
58821;BME280;70670;52.476;13.334;2023-08-21T05:14:19;101563.91;;;19.94;87.63
58821;BME280;70670;52.476;13.334;2023-08-21T05:16:45;101598.59;;;20.24;87.46
58821;BME280;70670;52.476;13.334;2023-08-21T05:19:11;101606.47;;;20.27;87.35
58821;BME280;70670;52.476;13.334;2023-08-21T05:21:37;101606.13;;;20.31;87.30
58821;BME280;70670;52.476;13.334;2023-08-21T05:24:02;101605.00;;;20.34;87.18
58821;BME280;70670;52.476;13.334;2023-08-21T05:26:28;101612.16;;;20.35;87.11
58821;BME280;70670;52.476;13.334;2023-08-21T05:28:54;101599.81;;;20.31;86.89
58821;BME280;70670;52.476;13.334;2023-08-21T05:31:19;101610.19;;;20.37;86.30
58821;BME280;70670;52.476;13.334;2023-08-21T05:33:45;101595.38;;;20.30;86.62
58821;BME280;70670;52.476;13.334;2023-08-21T05:36:10;101603.25;;;20.44;86.02
58821;BME280;70670;52.476;13.334;2023-08-21T05:38:36;101606.59;;;20.48;86.06
58821;BME280;70670;52.476;13.334;2023-08-21T05:41:02;101602.13;;;20.58;85.33
58821;BME280;70670;52.476;13.334;2023-08-21T05:43:27;101554.16;;;20.46;84.80
58821;BME280;70670;52.476;13.334;2023-08-21T05:45:53;101602.94;;;20.81;83.92
58821;BME280;70670;52.476;13.334;2023-08-21T05:48:19;101610.00;;;21.04;82.70
58821;BME280;70670;52.476;13.334;2023-08-21T05:50:45;101595.78;;;21.22;81.65
58821;BME280;70670;52.476;13.334;2023-08-21T05:53:15;101606.31;;;21.26;81.50
58821;BME280;70670;52.476;13.334;2023-08-21T05:55:41;101565.94;;;21.10;80.65
58821;BME280;70670;52.476;13.334;2023-08-21T05:58:07;101613.31;;;21.40;79.51
58821;BME280;70670;52.476;13.334;2023-08-21T06:00:33;101539.88;;;21.18;78.94
58821;BME280;70670;52.476;13.334;2023-08-21T06:03:00;101606.88;;;21.62;78.29
58821;BME280;70670;52.476;13.334;2023-08-21T06:05:25;101597.53;;;21.65;77.58
58821;BME280;70670;52.476;13.334;2023-08-21T06:07:51;101599.06;;;21.78;76.59
58821;BME280;70670;52.476;13.334;2023-08-21T06:10:17;101603.53;;;21.89;75.83
58821;BME280;70670;52.476;13.334;2023-08-21T06:12:43;101587.94;;;21.91;75.46
58821;BME280;70670;52.476;13.334;2023-08-21T06:15:09;101615.25;;;22.10;75.10
58821;BME280;70670;52.476;13.334;2023-08-21T06:17:35;101612.00;;;22.17;74.61
58821;BME280;70670;52.476;13.334;2023-08-21T06:20:01;101615.91;;;22.24;74.04
58821;BME280;70670;52.476;13.334;2023-08-21T06:22:28;101605.41;;;22.19;73.69
58821;BME280;70670;52.476;13.334;2023-08-21T06:24:54;101563.25;;;21.93;74.59
58821;BME280;70670;52.476;13.334;2023-08-21T06:27:19;101583.09;;;22.04;75.19
58821;BME280;70670;52.476;13.334;2023-08-21T06:29:45;101629.59;;;22.33;75.84
58821;BME280;70670;52.476;13.334;2023-08-21T06:32:11;101623.53;;;22.30;76.51
58821;BME280;70670;52.476;13.334;2023-08-21T06:34:36;101632.88;;;22.37;77.01
58821;BME280;70670;52.476;13.334;2023-08-21T06:37:02;101637.19;;;22.40;76.11
58821;BME280;70670;52.476;13.334;2023-08-21T06:39:28;101608.72;;;22.23;76.40
58821;BME280;70670;52.476;13.334;2023-08-21T06:41:54;101645.53;;;22.48;75.61
58821;BME280;70670;52.476;13.334;2023-08-21T06:44:20;101635.22;;;22.51;75.93
58821;BME280;70670;52.476;13.334;2023-08-21T06:46:46;101581.16;;;22.16;75.07
58821;BME280;70670;52.476;13.334;2023-08-21T06:49:11;101639.66;;;22.52;75.50
58821;BME280;70670;52.476;13.334;2023-08-21T06:51:37;101641.09;;;22.56;75.23
58821;BME280;70670;52.476;13.334;2023-08-21T06:54:02;101636.06;;;22.52;75.50
58821;BME280;70670;52.476;13.334;2023-08-21T06:56:28;101623.13;;;22.44;75.28
58821;BME280;70670;52.476;13.334;2023-08-21T06:58:54;101643.84;;;22.56;75.43
58821;BME280;70670;52.476;13.334;2023-08-21T07:01:21;101647.47;;;22.67;72.78
58821;BME280;70670;52.476;13.334;2023-08-21T07:03:46;101627.47;;;22.56;72.88
58821;BME280;70670;52.476;13.334;2023-08-21T07:06:12;101620.72;;;22.61;73.50
58821;BME280;70670;52.476;13.334;2023-08-21T07:08:38;101631.69;;;22.70;72.77
58821;BME280;70670;52.476;13.334;2023-08-21T07:11:06;101631.81;;;22.78;72.54
58821;BME280;70670;52.476;13.334;2023-08-21T07:13:33;101632.31;;;22.93;71.93
58821;BME280;70670;52.476;13.334;2023-08-21T07:15:59;101633.63;;;23.09;71.11
58821;BME280;70670;52.476;13.334;2023-08-21T07:18:31;101635.06;;;23.13;69.43
58821;BME280;70670;52.476;13.334;2023-08-21T07:20:57;101631.44;;;23.22;69.47
58821;BME280;70670;52.476;13.334;2023-08-21T07:23:22;101588.50;;;23.04;69.12
58821;BME280;70670;52.476;13.334;2023-08-21T07:25:48;101632.84;;;23.45;68.01
58821;BME280;70670;52.476;13.334;2023-08-21T07:28:21;101643.34;;;23.50;66.01
58821;BME280;70670;52.476;13.334;2023-08-21T07:30:47;101589.03;;;23.08;65.91
58821;BME280;70670;52.476;13.334;2023-08-21T07:33:12;101645.22;;;23.49;65.51
58821;BME280;70670;52.476;13.334;2023-08-21T07:35:38;101643.63;;;23.47;65.76
58821;BME280;70670;52.476;13.334;2023-08-21T07:38:04;101640.16;;;23.54;64.00
58821;BME280;70670;52.476;13.334;2023-08-21T07:40:30;101655.25;;;23.59;64.69
58821;BME280;70670;52.476;13.334;2023-08-21T07:42:55;101644.19;;;23.50;63.86
58821;BME280;70670;52.476;13.334;2023-08-21T07:45:21;101644.78;;;23.54;63.57
58821;BME280;70670;52.476;13.334;2023-08-21T07:47:47;101597.09;;;23.29;62.32
58821;BME280;70670;52.476;13.334;2023-08-21T07:50:12;101650.19;;;23.83;61.00
58821;BME280;70670;52.476;13.334;2023-08-21T07:52:40;101647.47;;;23.83;61.40
58821;BME280;70670;52.476;13.334;2023-08-21T07:55:06;101651.31;;;24.00;61.39
58821;BME280;70670;52.476;13.334;2023-08-21T07:57:32;101658.03;;;24.05;60.68
58821;BME280;70670;52.476;13.334;2023-08-21T07:59:58;101656.28;;;24.14;59.35
58821;BME280;70670;52.476;13.334;2023-08-21T08:02:24;101657.97;;;24.25;59.50
58821;BME280;70670;52.476;13.334;2023-08-21T08:04:50;101639.41;;;24.19;58.46
58821;BME280;70670;52.476;13.334;2023-08-21T08:07:16;101661.81;;;24.32;57.21
58821;BME280;70670;52.476;13.334;2023-08-21T08:09:41;101621.78;;;24.03;56.51
58821;BME280;70670;52.476;13.334;2023-08-21T08:12:07;101667.19;;;24.24;55.57
58821;BME280;70670;52.476;13.334;2023-08-21T08:14:33;101647.31;;;24.22;54.74
58821;BME280;70670;52.476;13.334;2023-08-21T08:16:58;101658.06;;;24.33;52.42
58821;BME280;70670;52.476;13.334;2023-08-21T08:19:24;101657.81;;;24.26;50.87
58821;BME280;70670;52.476;13.334;2023-08-21T08:21:50;101661.28;;;24.19;50.64
58821;BME280;70670;52.476;13.334;2023-08-21T08:24:15;101649.25;;;24.12;51.66
58821;BME280;70670;52.476;13.334;2023-08-21T08:26:41;101643.16;;;24.18;51.99
58821;BME280;70670;52.476;13.334;2023-08-21T08:29:09;101661.00;;;24.22;53.25
58821;BME280;70670;52.476;13.334;2023-08-21T08:31:34;101659.56;;;24.18;54.31
58821;BME280;70670;52.476;13.334;2023-08-21T08:34:00;101656.72;;;24.10;53.83
58821;BME280;70670;52.476;13.334;2023-08-21T08:36:26;101658.38;;;24.30;53.57
58821;BME280;70670;52.476;13.334;2023-08-21T08:38:52;101656.91;;;24.36;53.02
58821;BME280;70670;52.476;13.334;2023-08-21T08:41:48;101656.50;;;24.40;53.18
58821;BME280;70670;52.476;13.334;2023-08-21T08:44:16;101664.50;;;24.51;53.35
58821;BME280;70670;52.476;13.334;2023-08-21T08:46:42;101648.38;;;24.48;54.07
58821;BME280;70670;52.476;13.334;2023-08-21T08:49:08;101622.03;;;24.47;53.33
58821;BME280;70670;52.476;13.334;2023-08-21T08:51:34;101664.63;;;24.77;52.71
58821;BME280;70670;52.476;13.334;2023-08-21T08:54:00;101650.06;;;24.77;53.42
58821;BME280;70670;52.476;13.334;2023-08-21T08:56:26;101667.78;;;25.00;52.76
58821;BME280;70670;52.476;13.334;2023-08-21T08:58:51;101655.03;;;25.09;51.52
58821;BME280;70670;52.476;13.334;2023-08-21T09:01:17;101664.66;;;25.31;49.41
58821;BME280;70670;52.476;13.334;2023-08-21T09:03:43;101655.88;;;25.45;48.59
58821;BME280;70670;52.476;13.334;2023-08-21T09:06:09;101653.00;;;25.73;47.17
58821;BME280;70670;52.476;13.334;2023-08-21T09:08:35;101661.84;;;25.85;43.23
58821;BME280;70670;52.476;13.334;2023-08-21T09:11:01;101657.69;;;26.07;41.82
58821;BME280;70670;52.476;13.334;2023-08-21T09:13:31;101660.84;;;26.20;42.08
58821;BME280;70670;52.476;13.334;2023-08-21T09:15:56;101654.16;;;26.14;42.48
58821;BME280;70670;52.476;13.334;2023-08-21T09:18:24;101651.53;;;26.13;41.73
58821;BME280;70670;52.476;13.334;2023-08-21T09:20:49;101644.38;;;26.20;41.51
58821;BME280;70670;52.476;13.334;2023-08-21T09:23:17;101648.16;;;26.19;40.30
58821;BME280;70670;52.476;13.334;2023-08-21T09:25:45;101646.41;;;26.10;41.63
58821;BME280;70670;52.476;13.334;2023-08-21T09:28:13;101594.31;;;25.84;41.97
58821;BME280;70670;52.476;13.334;2023-08-21T09:30:51;101639.03;;;26.10;43.42
58821;BME280;70670;52.476;13.334;2023-08-21T09:33:18;101649.41;;;26.33;42.80
58821;BME280;70670;52.476;13.334;2023-08-21T09:35:44;101614.50;;;26.09;43.47
58821;BME280;70670;52.476;13.334;2023-08-21T09:38:10;101644.59;;;26.27;43.74
58821;BME280;70670;52.476;13.334;2023-08-21T09:40:40;101646.66;;;26.33;41.69
58821;BME280;70670;52.476;13.334;2023-08-21T09:43:08;101648.44;;;26.42;42.95
58821;BME280;70670;52.476;13.334;2023-08-21T09:45:34;101648.84;;;26.55;42.17
58821;BME280;70670;52.476;13.334;2023-08-21T09:48:00;101645.44;;;26.61;40.80
58821;BME280;70670;52.476;13.334;2023-08-21T09:50:28;101602.88;;;26.57;41.97
58821;BME280;70670;52.476;13.334;2023-08-21T09:52:56;101631.25;;;26.90;41.56
58821;BME280;70670;52.476;13.334;2023-08-21T09:55:22;101635.88;;;26.82;41.18
58821;BME280;70670;52.476;13.334;2023-08-21T09:57:48;101571.53;;;26.26;39.94
58821;BME280;70670;52.476;13.334;2023-08-21T10:00:22;101632.72;;;26.18;40.43
58821;BME280;70670;52.476;13.334;2023-08-21T10:02:51;101634.78;;;26.24;41.41
58821;BME280;70670;52.476;13.334;2023-08-21T10:05:17;101623.09;;;26.14;39.32
58821;BME280;70670;52.476;13.334;2023-08-21T10:07:44;101636.78;;;26.06;39.66
58821;BME280;70670;52.476;13.334;2023-08-21T10:10:12;101629.63;;;26.21;40.88
58821;BME280;70670;52.476;13.334;2023-08-21T10:12:38;101617.72;;;26.38;41.50
58821;BME280;70670;52.476;13.334;2023-08-21T10:15:03;101627.44;;;26.33;40.89
58821;BME280;70670;52.476;13.334;2023-08-21T10:17:30;101629.00;;;26.27;40.71
58821;BME280;70670;52.476;13.334;2023-08-21T10:20:02;101630.94;;;26.09;41.15
58821;BME280;70670;52.476;13.334;2023-08-21T10:22:48;101639.78;;;26.29;41.77
58821;BME280;70670;52.476;13.334;2023-08-21T10:25:18;101639.81;;;26.37;41.21
58821;BME280;70670;52.476;13.334;2023-08-21T10:27:50;101642.25;;;26.40;40.88
58821;BME280;70670;52.476;13.334;2023-08-21T10:30:20;101645.06;;;26.56;40.00
58821;BME280;70670;52.476;13.334;2023-08-21T10:32:47;101633.94;;;26.58;40.19
58821;BME280;70670;52.476;13.334;2023-08-21T10:35:19;101618.13;;;26.52;39.96
58821;BME280;70670;52.476;13.334;2023-08-21T10:38:14;101628.47;;;26.66;40.22
58821;BME280;70670;52.476;13.334;2023-08-21T10:41:04;101637.09;;;26.87;39.85
58821;BME280;70670;52.476;13.334;2023-08-21T10:43:41;101610.13;;;26.83;40.45
58821;BME280;70670;52.476;13.334;2023-08-21T10:46:08;101634.72;;;27.09;40.57
58821;BME280;70670;52.476;13.334;2023-08-21T10:48:35;101626.28;;;27.02;40.62
58821;BME280;70670;52.476;13.334;2023-08-21T10:51:03;101640.41;;;27.15;40.41
58821;BME280;70670;52.476;13.334;2023-08-21T10:53:30;101642.56;;;26.79;38.94
58821;BME280;70670;52.476;13.334;2023-08-21T10:55:56;101632.94;;;26.75;40.48
58821;BME280;70670;52.476;13.334;2023-08-21T10:58:22;101612.69;;;26.92;40.01
58821;BME280;70670;52.476;13.334;2023-08-21T11:00:56;101589.88;;;27.00;40.02
58821;BME280;70670;52.476;13.334;2023-08-21T11:03:22;101644.19;;;27.47;40.23
58821;BME280;70670;52.476;13.334;2023-08-21T11:06:03;101653.66;;;27.53;40.34
58821;BME280;70670;52.476;13.334;2023-08-21T11:08:29;101649.66;;;27.63;38.87
58821;BME280;70670;52.476;13.334;2023-08-21T11:10:56;101647.97;;;27.30;37.82
58821;BME280;70670;52.476;13.334;2023-08-21T11:13:24;101665.84;;;27.34;39.01
58821;BME280;70670;52.476;13.334;2023-08-21T11:15:58;101639.53;;;27.48;38.44
58821;BME280;70670;52.476;13.334;2023-08-21T11:18:32;101649.19;;;27.27;37.33
58821;BME280;70670;52.476;13.334;2023-08-21T11:21:07;101643.28;;;26.81;37.74
58821;BME280;70670;52.476;13.334;2023-08-21T11:23:35;101639.47;;;26.74;38.84
58821;BME280;70670;52.476;13.334;2023-08-21T11:26:02;101644.44;;;26.79;38.66
58821;BME280;70670;52.476;13.334;2023-08-21T11:28:30;101649.94;;;26.70;38.83
58821;BME280;70670;52.476;13.334;2023-08-21T11:30:56;101643.38;;;26.63;38.96
58821;BME280;70670;52.476;13.334;2023-08-21T11:33:23;101626.22;;;26.61;38.97
58821;BME280;70670;52.476;13.334;2023-08-21T11:35:49;101634.31;;;26.79;39.30
58821;BME280;70670;52.476;13.334;2023-08-21T11:38:20;101604.50;;;27.01;39.26
58821;BME280;70670;52.476;13.334;2023-08-21T11:40:56;101617.53;;;26.98;38.17
58821;BME280;70670;52.476;13.334;2023-08-21T11:43:41;101647.66;;;27.33;38.38
58821;BME280;70670;52.476;13.334;2023-08-21T11:46:08;101624.81;;;27.32;37.52
58821;BME280;70670;52.476;13.334;2023-08-21T11:48:37;101632.16;;;27.56;37.76
58821;BME280;70670;52.476;13.334;2023-08-21T11:51:03;101638.69;;;27.80;38.19
58821;BME280;70670;52.476;13.334;2023-08-21T11:53:39;101634.41;;;27.77;38.81
58821;BME280;70670;52.476;13.334;2023-08-21T11:56:15;101642.28;;;27.88;37.26
58821;BME280;70670;52.476;13.334;2023-08-21T11:58:43;101647.13;;;27.37;36.95
58821;BME280;70670;52.476;13.334;2023-08-21T12:01:20;101647.78;;;27.15;38.05
58821;BME280;70670;52.476;13.334;2023-08-21T12:03:46;101643.81;;;27.01;38.74
58821;BME280;70670;52.476;13.334;2023-08-21T12:06:19;101633.69;;;27.02;38.90
58821;BME280;70670;52.476;13.334;2023-08-21T12:08:45;101636.94;;;26.97;38.17
58821;BME280;70670;52.476;13.334;2023-08-21T12:11:11;101629.34;;;26.32;39.43
58821;BME280;70670;52.476;13.334;2023-08-21T12:13:37;101646.59;;;26.51;39.71
58821;BME280;70670;52.476;13.334;2023-08-21T12:16:03;101636.72;;;26.32;40.20
58821;BME280;70670;52.476;13.334;2023-08-21T12:18:29;101648.31;;;26.52;40.01
58821;BME280;70670;52.476;13.334;2023-08-21T12:20:54;101597.97;;;26.35;40.21
58821;BME280;70670;52.476;13.334;2023-08-21T12:23:20;101650.41;;;26.58;39.95
58821;BME280;70670;52.476;13.334;2023-08-21T12:25:45;101651.47;;;26.65;39.51
58821;BME280;70670;52.476;13.334;2023-08-21T12:28:11;101638.22;;;26.60;40.56
58821;BME280;70670;52.476;13.334;2023-08-21T12:30:37;101637.97;;;26.37;41.29
58821;BME280;70670;52.476;13.334;2023-08-21T12:33:03;101636.66;;;26.50;41.72
58821;BME280;70670;52.476;13.334;2023-08-21T12:35:28;101624.16;;;26.63;41.65
58821;BME280;70670;52.476;13.334;2023-08-21T12:37:56;101635.13;;;26.63;41.13
58821;BME280;70670;52.476;13.334;2023-08-21T12:40:22;101617.00;;;26.36;40.91